sensor_id;sensor_type;location;lat;lon;timestamp;temperature;humidity
51567;DHT22;37657;53.182;5.638;2023-02-15T00:01:07;1.80;99.90
51567;DHT22;37657;53.182;5.638;2023-02-15T00:03:33;1.50;99.90
51567;DHT22;37657;53.182;5.638;2023-02-15T00:05:58;1.40;99.90
51567;DHT22;37657;53.182;5.638;2023-02-15T00:08:24;1.70;99.90
51567;DHT22;37657;53.182;5.638;2023-02-15T00:10:50;1.70;99.90
51567;DHT22;37657;53.182;5.638;2023-02-15T00:13:15;1.60;99.90
51567;DHT22;37657;53.182;5.638;2023-02-15T00:15:41;1.40;99.90
51567;DHT22;37657;53.182;5.638;2023-02-15T00:18:06;1.30;99.90
51567;DHT22;37657;53.182;5.638;2023-02-15T00:20:32;1.30;99.90
51567;DHT22;37657;53.182;5.638;2023-02-15T00:22:58;1.60;99.90
51567;DHT22;37657;53.182;5.638;2023-02-15T00:25:24;1.60;99.90
51567;DHT22;37657;53.182;5.638;2023-02-15T00:27:49;1.60;99.90
51567;DHT22;37657;53.182;5.638;2023-02-15T00:30:16;1.50;99.90
51567;DHT22;37657;53.182;5.638;2023-02-15T00:32:42;1.50;99.90
51567;DHT22;37657;53.182;5.638;2023-02-15T00:35:08;1.50;99.90
51567;DHT22;37657;53.182;5.638;2023-02-15T00:37:35;1.60;99.90
51567;DHT22;37657;53.182;5.638;2023-02-15T00:40:01;1.50;99.90
51567;DHT22;37657;53.182;5.638;2023-02-15T00:42:26;1.30;99.90
51567;DHT22;37657;53.182;5.638;2023-02-15T00:44:52;1.60;99.90
51567;DHT22;37657;53.182;5.638;2023-02-15T00:47:17;1.60;99.90
51567;DHT22;37657;53.182;5.638;2023-02-15T00:49:43;1.20;99.90
51567;DHT22;37657;53.182;5.638;2023-02-15T00:52:09;1.40;99.90
51567;DHT22;37657;53.182;5.638;2023-02-15T00:54:34;1.20;99.90
51567;DHT22;37657;53.182;5.638;2023-02-15T00:57:00;1.30;99.90
51567;DHT22;37657;53.182;5.638;2023-02-15T00:59:26;1.40;99.90
51567;DHT22;37657;53.182;5.638;2023-02-15T01:01:51;1.10;99.90
51567;DHT22;37657;53.182;5.638;2023-02-15T01:04:17;1.20;99.90
51567;DHT22;37657;53.182;5.638;2023-02-15T01:06:42;1.20;99.90
51567;DHT22;37657;53.182;5.638;2023-02-15T01:09:08;0.90;99.90
51567;DHT22;37657;53.182;5.638;2023-02-15T01:11:33;0.90;99.90
51567;DHT22;37657;53.182;5.638;2023-02-15T01:13:59;0.80;99.90
51567;DHT22;37657;53.182;5.638;2023-02-15T01:16:26;1.20;99.90
51567;DHT22;37657;53.182;5.638;2023-02-15T01:18:52;1.30;99.90
51567;DHT22;37657;53.182;5.638;2023-02-15T01:21:21;0.90;99.90
51567;DHT22;37657;53.182;5.638;2023-02-15T01:23:48;1.20;99.90
51567;DHT22;37657;53.182;5.638;2023-02-15T01:26:14;1.00;99.90
51567;DHT22;37657;53.182;5.638;2023-02-15T01:28:40;1.20;99.90
51567;DHT22;37657;53.182;5.638;2023-02-15T01:31:08;1.50;99.90
51567;DHT22;37657;53.182;5.638;2023-02-15T01:33:35;1.40;99.90
51567;DHT22;37657;53.182;5.638;2023-02-15T01:36:02;1.10;99.90
51567;DHT22;37657;53.182;5.638;2023-02-15T01:38:28;1.50;99.90
51567;DHT22;37657;53.182;5.638;2023-02-15T01:40:53;1.40;99.90
51567;DHT22;37657;53.182;5.638;2023-02-15T01:43:44;1.20;99.90
51567;DHT22;37657;53.182;5.638;2023-02-15T01:46:13;1.50;99.90
51567;DHT22;37657;53.182;5.638;2023-02-15T01:48:46;1.60;99.90
51567;DHT22;37657;53.182;5.638;2023-02-15T01:51:13;1.20;99.90
51567;DHT22;37657;53.182;5.638;2023-02-15T01:53:48;1.30;99.90
51567;DHT22;37657;53.182;5.638;2023-02-15T01:56:19;1.30;99.90
51567;DHT22;37657;53.182;5.638;2023-02-15T01:58:46;1.60;99.90
51567;DHT22;37657;53.182;5.638;2023-02-15T02:01:13;1.60;99.90
51567;DHT22;37657;53.182;5.638;2023-02-15T02:06:27;1.50;99.90
51567;DHT22;37657;53.182;5.638;2023-02-15T02:08:53;1.10;99.90
51567;DHT22;37657;53.182;5.638;2023-02-15T02:11:20;1.10;99.90
51567;DHT22;37657;53.182;5.638;2023-02-15T02:13:46;1.60;99.90
51567;DHT22;37657;53.182;5.638;2023-02-15T02:16:23;1.20;99.90
51567;DHT22;37657;53.182;5.638;2023-02-15T02:22:33;1.40;99.90
51567;DHT22;37657;53.182;5.638;2023-02-15T02:25:35;1.30;99.90
51567;DHT22;37657;53.182;5.638;2023-02-15T02:31:37;0.90;99.90
51567;DHT22;37657;53.182;5.638;2023-02-15T02:34:30;1.00;99.90
51567;DHT22;37657;53.182;5.638;2023-02-15T02:37:19;1.10;99.90
51567;DHT22;37657;53.182;5.638;2023-02-15T02:42:42;0.90;99.90
51567;DHT22;37657;53.182;5.638;2023-02-15T02:46:13;1.00;99.90
51567;DHT22;37657;53.182;5.638;2023-02-15T02:48:16;1.20;99.90
51567;DHT22;37657;53.182;5.638;2023-02-15T02:50:44;1.00;99.90
51567;DHT22;37657;53.182;5.638;2023-02-15T02:53:10;0.90;99.90
51567;DHT22;37657;53.182;5.638;2023-02-15T02:58:13;0.90;99.90
51567;DHT22;37657;53.182;5.638;2023-02-15T03:00:46;0.80;99.90
51567;DHT22;37657;53.182;5.638;2023-02-15T03:03:22;1.10;99.90
51567;DHT22;37657;53.182;5.638;2023-02-15T03:05:51;0.70;99.90
51567;DHT22;37657;53.182;5.638;2023-02-15T03:08:19;0.90;99.90
51567;DHT22;37657;53.182;5.638;2023-02-15T03:10:50;0.90;99.90
51567;DHT22;37657;53.182;5.638;2023-02-15T03:13:16;1.00;99.90
51567;DHT22;37657;53.182;5.638;2023-02-15T03:15:44;0.70;99.90
51567;DHT22;37657;53.182;5.638;2023-02-15T03:18:30;1.00;99.90
51567;DHT22;37657;53.182;5.638;2023-02-15T03:20:59;1.20;99.90
51567;DHT22;37657;53.182;5.638;2023-02-15T03:23:28;0.80;99.90
51567;DHT22;37657;53.182;5.638;2023-02-15T03:26:01;0.70;99.90
51567;DHT22;37657;53.182;5.638;2023-02-15T03:28:35;1.10;99.90
51567;DHT22;37657;53.182;5.638;2023-02-15T03:31:04;0.80;99.90
51567;DHT22;37657;53.182;5.638;2023-02-15T03:33:31;1.10;99.90
51567;DHT22;37657;53.182;5.638;2023-02-15T03:36:22;1.10;99.90
51567;DHT22;37657;53.182;5.638;2023-02-15T03:39:02;1.10;99.90
51567;DHT22;37657;53.182;5.638;2023-02-15T03:41:34;0.60;99.90
51567;DHT22;37657;53.182;5.638;2023-02-15T03:44:06;0.80;99.90
51567;DHT22;37657;53.182;5.638;2023-02-15T03:49:11;0.90;99.90
51567;DHT22;37657;53.182;5.638;2023-02-15T03:51:40;0.80;99.90
51567;DHT22;37657;53.182;5.638;2023-02-15T03:54:09;0.80;99.90
51567;DHT22;37657;53.182;5.638;2023-02-15T03:56:37;0.40;99.90
51567;DHT22;37657;53.182;5.638;2023-02-15T03:59:04;0.40;99.90
51567;DHT22;37657;53.182;5.638;2023-02-15T04:04:26;0.20;99.90
51567;DHT22;37657;53.182;5.638;2023-02-15T04:06:52;0.60;99.90
51567;DHT22;37657;53.182;5.638;2023-02-15T04:09:18;0.10;99.90
51567;DHT22;37657;53.182;5.638;2023-02-15T04:12:02;0.10;99.90
51567;DHT22;37657;53.182;5.638;2023-02-15T04:14:28;0.10;99.90
51567;DHT22;37657;53.182;5.638;2023-02-15T04:17:12;0.10;99.90
51567;DHT22;37657;53.182;5.638;2023-02-15T04:19:37;0.40;99.90
51567;DHT22;37657;53.182;5.638;2023-02-15T04:22:21;0.00;99.90
51567;DHT22;37657;53.182;5.638;2023-02-15T04:25:06;0.30;99.90
51567;DHT22;37657;53.182;5.638;2023-02-15T04:27:46;0.40;99.90
51567;DHT22;37657;53.182;5.638;2023-02-15T04:30:13;0.10;99.90
51567;DHT22;37657;53.182;5.638;2023-02-15T04:32:40;-0.10;99.90
51567;DHT22;37657;53.182;5.638;2023-02-15T04:35:06;0.30;99.90
51567;DHT22;37657;53.182;5.638;2023-02-15T04:37:32;0.30;99.90
51567;DHT22;37657;53.182;5.638;2023-02-15T04:39:58;0.20;99.90
51567;DHT22;37657;53.182;5.638;2023-02-15T04:42:25;-0.10;99.90
51567;DHT22;37657;53.182;5.638;2023-02-15T04:44:51;-0.20;99.90
51567;DHT22;37657;53.182;5.638;2023-02-15T04:47:17;0.20;99.90
51567;DHT22;37657;53.182;5.638;2023-02-15T04:49:42;-0.10;99.90
51567;DHT22;37657;53.182;5.638;2023-02-15T04:52:08;-0.20;99.90
51567;DHT22;37657;53.182;5.638;2023-02-15T04:54:34;0.00;99.90
51567;DHT22;37657;53.182;5.638;2023-02-15T04:56:59;0.00;99.90
51567;DHT22;37657;53.182;5.638;2023-02-15T04:59:25;-0.20;99.90
51567;DHT22;37657;53.182;5.638;2023-02-15T05:01:50;0.00;99.90
51567;DHT22;37657;53.182;5.638;2023-02-15T05:04:16;-0.30;99.90
51567;DHT22;37657;53.182;5.638;2023-02-15T05:06:41;-0.50;99.90
51567;DHT22;37657;53.182;5.638;2023-02-15T05:09:07;-0.20;99.90
51567;DHT22;37657;53.182;5.638;2023-02-15T05:11:32;-0.50;99.90
51567;DHT22;37657;53.182;5.638;2023-02-15T05:13:58;-0.50;99.90
51567;DHT22;37657;53.182;5.638;2023-02-15T05:16:24;-0.30;99.90
51567;DHT22;37657;53.182;5.638;2023-02-15T05:18:50;-0.40;99.90
51567;DHT22;37657;53.182;5.638;2023-02-15T05:21:16;-0.50;99.90
51567;DHT22;37657;53.182;5.638;2023-02-15T05:23:42;-0.10;99.90
51567;DHT22;37657;53.182;5.638;2023-02-15T05:26:17;-0.10;99.90
51567;DHT22;37657;53.182;5.638;2023-02-15T05:29:02;-0.10;99.90
51567;DHT22;37657;53.182;5.638;2023-02-15T05:31:28;-0.10;99.90
51567;DHT22;37657;53.182;5.638;2023-02-15T05:33:53;-0.10;99.90
51567;DHT22;37657;53.182;5.638;2023-02-15T05:36:19;-0.50;99.90
51567;DHT22;37657;53.182;5.638;2023-02-15T05:38:44;-0.20;99.90
51567;DHT22;37657;53.182;5.638;2023-02-15T05:41:11;-0.50;99.90
51567;DHT22;37657;53.182;5.638;2023-02-15T05:43:37;-0.10;99.90
51567;DHT22;37657;53.182;5.638;2023-02-15T05:46:04;-0.20;99.90
51567;DHT22;37657;53.182;5.638;2023-02-15T05:48:30;-0.10;99.90
51567;DHT22;37657;53.182;5.638;2023-02-15T05:51:08;-0.50;99.90
51567;DHT22;37657;53.182;5.638;2023-02-15T05:53:36;-0.50;99.90
51567;DHT22;37657;53.182;5.638;2023-02-15T05:56:02;-0.10;99.90
51567;DHT22;37657;53.182;5.638;2023-02-15T05:58:30;0.00;99.90
51567;DHT22;37657;53.182;5.638;2023-02-15T06:00:56;-0.40;99.90
51567;DHT22;37657;53.182;5.638;2023-02-15T06:03:23;-0.10;99.90
51567;DHT22;37657;53.182;5.638;2023-02-15T06:05:49;0.00;99.90
51567;DHT22;37657;53.182;5.638;2023-02-15T06:08:14;-0.30;99.90
51567;DHT22;37657;53.182;5.638;2023-02-15T06:10:40;-0.30;99.90
51567;DHT22;37657;53.182;5.638;2023-02-15T06:13:06;0.00;99.90
51567;DHT22;37657;53.182;5.638;2023-02-15T06:15:32;-0.20;99.90
51567;DHT22;37657;53.182;5.638;2023-02-15T06:17:57;-0.20;99.90
51567;DHT22;37657;53.182;5.638;2023-02-15T06:20:23;0.00;99.90
51567;DHT22;37657;53.182;5.638;2023-02-15T06:22:48;-0.20;99.90
51567;DHT22;37657;53.182;5.638;2023-02-15T06:25:14;-0.40;99.90
51567;DHT22;37657;53.182;5.638;2023-02-15T06:27:43;0.20;99.90
51567;DHT22;37657;53.182;5.638;2023-02-15T06:30:09;-0.10;99.90
51567;DHT22;37657;53.182;5.638;2023-02-15T06:32:35;0.00;99.90
51567;DHT22;37657;53.182;5.638;2023-02-15T06:35:01;0.30;99.90
51567;DHT22;37657;53.182;5.638;2023-02-15T06:37:27;0.20;99.90
51567;DHT22;37657;53.182;5.638;2023-02-15T06:39:52;0.30;99.90
51567;DHT22;37657;53.182;5.638;2023-02-15T06:42:18;0.10;99.90
51567;DHT22;37657;53.182;5.638;2023-02-15T06:44:44;0.30;99.90
51567;DHT22;37657;53.182;5.638;2023-02-15T06:47:10;0.30;99.90
51567;DHT22;37657;53.182;5.638;2023-02-15T06:49:36;0.50;99.90
51567;DHT22;37657;53.182;5.638;2023-02-15T06:52:02;0.50;99.90
51567;DHT22;37657;53.182;5.638;2023-02-15T06:54:28;0.50;99.90
51567;DHT22;37657;53.182;5.638;2023-02-15T06:56:53;0.60;99.90
51567;DHT22;37657;53.182;5.638;2023-02-15T06:59:19;0.40;99.90
51567;DHT22;37657;53.182;5.638;2023-02-15T07:01:44;1.00;99.90
51567;DHT22;37657;53.182;5.638;2023-02-15T07:04:10;0.80;99.90
51567;DHT22;37657;53.182;5.638;2023-02-15T07:06:35;0.90;99.90
51567;DHT22;37657;53.182;5.638;2023-02-15T07:09:01;1.00;99.90
51567;DHT22;37657;53.182;5.638;2023-02-15T07:11:27;0.60;99.90
51567;DHT22;37657;53.182;5.638;2023-02-15T07:14:11;0.60;99.90
51567;DHT22;37657;53.182;5.638;2023-02-15T07:16:37;0.60;99.90
51567;DHT22;37657;53.182;5.638;2023-02-15T07:19:03;1.00;99.90
51567;DHT22;37657;53.182;5.638;2023-02-15T07:21:29;0.80;99.90
51567;DHT22;37657;53.182;5.638;2023-02-15T07:23:58;1.10;99.90
51567;DHT22;37657;53.182;5.638;2023-02-15T07:26:23;1.20;99.90
51567;DHT22;37657;53.182;5.638;2023-02-15T07:28:49;0.90;99.90
51567;DHT22;37657;53.182;5.638;2023-02-15T07:31:15;1.20;99.90
51567;DHT22;37657;53.182;5.638;2023-02-15T07:33:41;0.90;99.90
51567;DHT22;37657;53.182;5.638;2023-02-15T07:36:07;0.80;99.90
51567;DHT22;37657;53.182;5.638;2023-02-15T07:38:36;1.10;99.90
51567;DHT22;37657;53.182;5.638;2023-02-15T07:41:05;1.00;99.90
51567;DHT22;37657;53.182;5.638;2023-02-15T07:43:33;0.80;99.90
51567;DHT22;37657;53.182;5.638;2023-02-15T07:46:00;1.30;99.90
51567;DHT22;37657;53.182;5.638;2023-02-15T07:48:26;0.80;99.90
51567;DHT22;37657;53.182;5.638;2023-02-15T07:50:52;0.80;99.90
51567;DHT22;37657;53.182;5.638;2023-02-15T07:53:17;0.80;99.90
51567;DHT22;37657;53.182;5.638;2023-02-15T07:55:43;1.10;99.90
51567;DHT22;37657;53.182;5.638;2023-02-15T07:58:09;0.90;99.90
51567;DHT22;37657;53.182;5.638;2023-02-15T08:00:34;1.20;99.90
51567;DHT22;37657;53.182;5.638;2023-02-15T08:03:23;1.10;99.90
51567;DHT22;37657;53.182;5.638;2023-02-15T08:05:49;1.20;99.90
51567;DHT22;37657;53.182;5.638;2023-02-15T08:08:15;1.60;99.90
51567;DHT22;37657;53.182;5.638;2023-02-15T08:14:10;1.60;99.90
51567;DHT22;37657;53.182;5.638;2023-02-15T08:16:53;1.80;99.90
51567;DHT22;37657;53.182;5.638;2023-02-15T08:21:49;1.40;99.90
51567;DHT22;37657;53.182;5.638;2023-02-15T08:24:17;1.50;99.90
51567;DHT22;37657;53.182;5.638;2023-02-15T08:26:43;1.60;99.90
51567;DHT22;37657;53.182;5.638;2023-02-15T08:29:12;2.00;99.90
51567;DHT22;37657;53.182;5.638;2023-02-15T08:31:38;1.90;99.90
51567;DHT22;37657;53.182;5.638;2023-02-15T08:34:06;1.70;99.90
51567;DHT22;37657;53.182;5.638;2023-02-15T08:36:33;1.70;99.90
51567;DHT22;37657;53.182;5.638;2023-02-15T08:39:00;2.00;99.90
51567;DHT22;37657;53.182;5.638;2023-02-15T08:41:28;2.10;99.90
51567;DHT22;37657;53.182;5.638;2023-02-15T08:43:59;2.40;99.90
51567;DHT22;37657;53.182;5.638;2023-02-15T08:46:27;2.40;99.90
51567;DHT22;37657;53.182;5.638;2023-02-15T08:48:53;2.50;99.90
51567;DHT22;37657;53.182;5.638;2023-02-15T08:51:25;2.70;99.90
51567;DHT22;37657;53.182;5.638;2023-02-15T08:53:53;2.80;99.90
51567;DHT22;37657;53.182;5.638;2023-02-15T08:56:23;2.90;99.90
51567;DHT22;37657;53.182;5.638;2023-02-15T08:58:49;2.90;99.90
51567;DHT22;37657;53.182;5.638;2023-02-15T09:01:17;2.90;99.90
51567;DHT22;37657;53.182;5.638;2023-02-15T09:03:44;3.00;99.90
51567;DHT22;37657;53.182;5.638;2023-02-15T09:06:10;3.10;99.90
51567;DHT22;37657;53.182;5.638;2023-02-15T09:08:37;3.20;99.90
51567;DHT22;37657;53.182;5.638;2023-02-15T09:11:08;3.50;99.90
51567;DHT22;37657;53.182;5.638;2023-02-15T09:13:34;3.80;99.90
51567;DHT22;37657;53.182;5.638;2023-02-15T09:16:01;3.80;99.90
51567;DHT22;37657;53.182;5.638;2023-02-15T09:18:30;3.60;99.90
51567;DHT22;37657;53.182;5.638;2023-02-15T09:20:56;3.90;99.90
51567;DHT22;37657;53.182;5.638;2023-02-15T09:23:22;3.90;99.90
51567;DHT22;37657;53.182;5.638;2023-02-15T09:25:50;4.20;99.90
51567;DHT22;37657;53.182;5.638;2023-02-15T09:28:15;4.00;99.90
51567;DHT22;37657;53.182;5.638;2023-02-15T09:30:41;4.30;99.90
51567;DHT22;37657;53.182;5.638;2023-02-15T09:33:06;4.50;99.90
51567;DHT22;37657;53.182;5.638;2023-02-15T09:35:32;4.80;99.90
51567;DHT22;37657;53.182;5.638;2023-02-15T09:37:58;4.90;99.90
51567;DHT22;37657;53.182;5.638;2023-02-15T09:40:23;4.80;99.90
51567;DHT22;37657;53.182;5.638;2023-02-15T09:53:49;5.70;99.90
51567;DHT22;37657;53.182;5.638;2023-02-15T09:56:57;5.30;99.90
51567;DHT22;37657;53.182;5.638;2023-02-15T10:10:39;6.10;99.90
51567;DHT22;37657;53.182;5.638;2023-02-15T10:13:36;6.10;99.90
51567;DHT22;37657;53.182;5.638;2023-02-15T10:16:15;6.20;99.90
51567;DHT22;37657;53.182;5.638;2023-02-15T10:18:53;6.40;99.90
51567;DHT22;37657;53.182;5.638;2023-02-15T10:21:43;6.50;99.90
51567;DHT22;37657;53.182;5.638;2023-02-15T10:24:34;6.60;99.90
51567;DHT22;37657;53.182;5.638;2023-02-15T10:27:11;6.90;99.90
51567;DHT22;37657;53.182;5.638;2023-02-15T10:29:43;7.20;99.90
51567;DHT22;37657;53.182;5.638;2023-02-15T10:32:24;7.30;99.90
51567;DHT22;37657;53.182;5.638;2023-02-15T10:35:01;7.40;99.90
51567;DHT22;37657;53.182;5.638;2023-02-15T10:37:44;7.20;99.90
51567;DHT22;37657;53.182;5.638;2023-02-15T10:43:20;7.70;99.90
51567;DHT22;37657;53.182;5.638;2023-02-15T10:49:14;7.70;99.90
51567;DHT22;37657;53.182;5.638;2023-02-15T10:51:50;7.90;99.90
51567;DHT22;37657;53.182;5.638;2023-02-15T11:18:21;8.00;99.90
51567;DHT22;37657;53.182;5.638;2023-02-15T11:23:27;8.60;99.90
51567;DHT22;37657;53.182;5.638;2023-02-15T11:25:59;8.70;99.90
51567;DHT22;37657;53.182;5.638;2023-02-15T11:28:37;8.70;99.90
51567;DHT22;37657;53.182;5.638;2023-02-15T11:31:18;8.80;99.90
51567;DHT22;37657;53.182;5.638;2023-02-15T11:33:51;8.90;99.90
51567;DHT22;37657;53.182;5.638;2023-02-15T11:36:33;8.90;99.90
51567;DHT22;37657;53.182;5.638;2023-02-15T11:39:13;8.90;99.90
51567;DHT22;37657;53.182;5.638;2023-02-15T11:41:53;9.00;99.90
51567;DHT22;37657;53.182;5.638;2023-02-15T11:44:34;9.00;99.90
51567;DHT22;37657;53.182;5.638;2023-02-15T11:47:00;9.10;99.90
51567;DHT22;37657;53.182;5.638;2023-02-15T11:51:56;9.20;99.90
51567;DHT22;37657;53.182;5.638;2023-02-15T11:54:29;9.10;99.90
51567;DHT22;37657;53.182;5.638;2023-02-15T11:57:12;9.20;99.90
51567;DHT22;37657;53.182;5.638;2023-02-15T11:59:43;9.20;99.90
51567;DHT22;37657;53.182;5.638;2023-02-15T12:02:20;9.20;99.90
51567;DHT22;37657;53.182;5.638;2023-02-15T12:04:51;9.30;99.90
51567;DHT22;37657;53.182;5.638;2023-02-15T12:07:25;9.20;99.90
51567;DHT22;37657;53.182;5.638;2023-02-15T12:12:39;9.20;99.90
51567;DHT22;37657;53.182;5.638;2023-02-15T12:15:09;9.30;99.90
51567;DHT22;37657;53.182;5.638;2023-02-15T12:17:52;9.30;99.90
51567;DHT22;37657;53.182;5.638;2023-02-15T12:23:11;9.40;99.90
51567;DHT22;37657;53.182;5.638;2023-02-15T12:25:43;9.40;99.90
51567;DHT22;37657;53.182;5.638;2023-02-15T12:30:50;9.50;99.90
51567;DHT22;37657;53.182;5.638;2023-02-15T12:33:31;9.60;99.90
51567;DHT22;37657;53.182;5.638;2023-02-15T12:36:19;9.60;99.90
51567;DHT22;37657;53.182;5.638;2023-02-15T12:39:04;9.60;99.90
51567;DHT22;37657;53.182;5.638;2023-02-15T12:41:30;9.60;99.90
51567;DHT22;37657;53.182;5.638;2023-02-15T12:44:15;9.70;99.90
51567;DHT22;37657;53.182;5.638;2023-02-15T12:46:41;9.70;99.90
51567;DHT22;37657;53.182;5.638;2023-02-15T12:49:11;9.70;99.90
51567;DHT22;37657;53.182;5.638;2023-02-15T12:51:52;9.70;99.90
51567;DHT22;37657;53.182;5.638;2023-02-15T12:54:38;9.60;99.90
51567;DHT22;37657;53.182;5.638;2023-02-15T12:57:24;9.60;99.90
51567;DHT22;37657;53.182;5.638;2023-02-15T13:04:51;9.50;99.90
51567;DHT22;37657;53.182;5.638;2023-02-15T13:07:18;9.50;99.90
51567;DHT22;37657;53.182;5.638;2023-02-15T13:09:44;9.40;99.90
51567;DHT22;37657;53.182;5.638;2023-02-15T13:14:46;9.40;99.90
51567;DHT22;37657;53.182;5.638;2023-02-15T13:17:13;9.50;99.90
51567;DHT22;37657;53.182;5.638;2023-02-15T13:19:47;9.40;99.90
51567;DHT22;37657;53.182;5.638;2023-02-15T13:22:16;9.50;99.90
51567;DHT22;37657;53.182;5.638;2023-02-15T13:24:50;9.50;99.90
51567;DHT22;37657;53.182;5.638;2023-02-15T13:27:24;9.50;99.90
51567;DHT22;37657;53.182;5.638;2023-02-15T13:29:53;9.50;99.90
51567;DHT22;37657;53.182;5.638;2023-02-15T13:32:30;9.40;99.90
51567;DHT22;37657;53.182;5.638;2023-02-15T13:34:58;9.40;99.90
51567;DHT22;37657;53.182;5.638;2023-02-15T13:37:34;9.40;99.90
51567;DHT22;37657;53.182;5.638;2023-02-15T13:40:11;9.40;99.90
51567;DHT22;37657;53.182;5.638;2023-02-15T13:42:56;9.40;99.90
51567;DHT22;37657;53.182;5.638;2023-02-15T13:48:51;9.40;99.90
51567;DHT22;37657;53.182;5.638;2023-02-15T13:57:35;9.30;99.90
51567;DHT22;37657;53.182;5.638;2023-02-15T14:00:41;9.20;99.90
51567;DHT22;37657;53.182;5.638;2023-02-15T14:09:44;9.10;99.90
51567;DHT22;37657;53.182;5.638;2023-02-15T14:15:24;9.10;99.90
51567;DHT22;37657;53.182;5.638;2023-02-15T14:20:41;9.20;99.90
51567;DHT22;37657;53.182;5.638;2023-02-15T14:26:40;9.20;99.90
51567;DHT22;37657;53.182;5.638;2023-02-15T14:29:18;9.20;99.90
51567;DHT22;37657;53.182;5.638;2023-02-15T14:31:52;9.20;99.90
51567;DHT22;37657;53.182;5.638;2023-02-15T14:34:25;9.20;99.90
51567;DHT22;37657;53.182;5.638;2023-02-15T14:36:53;9.20;99.90
51567;DHT22;37657;53.182;5.638;2023-02-15T14:45:26;9.30;99.90
51567;DHT22;37657;53.182;5.638;2023-02-15T14:48:05;9.30;99.90
51567;DHT22;37657;53.182;5.638;2023-02-15T14:50:39;9.30;99.90
51567;DHT22;37657;53.182;5.638;2023-02-15T14:58:55;9.30;99.90
51567;DHT22;37657;53.182;5.638;2023-02-15T15:01:41;9.20;99.90
51567;DHT22;37657;53.182;5.638;2023-02-15T15:04:32;9.20;99.90
51567;DHT22;37657;53.182;5.638;2023-02-15T15:09:41;9.20;99.90
51567;DHT22;37657;53.182;5.638;2023-02-15T15:14:47;9.10;99.90
51567;DHT22;37657;53.182;5.638;2023-02-15T15:22:42;9.00;99.90
51567;DHT22;37657;53.182;5.638;2023-02-15T15:28:02;8.90;99.90
51567;DHT22;37657;53.182;5.638;2023-02-15T15:35:34;8.80;99.90
51567;DHT22;37657;53.182;5.638;2023-02-15T15:49:38;8.60;99.90
51567;DHT22;37657;53.182;5.638;2023-02-15T15:52:19;8.60;99.90
51567;DHT22;37657;53.182;5.638;2023-02-15T15:54:46;8.50;99.90
51567;DHT22;37657;53.182;5.638;2023-02-15T15:57:32;8.40;99.90
51567;DHT22;37657;53.182;5.638;2023-02-15T15:59:59;8.40;99.90
51567;DHT22;37657;53.182;5.638;2023-02-15T16:02:25;8.30;99.90
51567;DHT22;37657;53.182;5.638;2023-02-15T16:04:51;8.40;99.90
51567;DHT22;37657;53.182;5.638;2023-02-15T16:09:59;8.30;99.90
51567;DHT22;37657;53.182;5.638;2023-02-15T16:12:27;8.20;99.90
51567;DHT22;37657;53.182;5.638;2023-02-15T16:14:54;8.20;99.90
51567;DHT22;37657;53.182;5.638;2023-02-15T16:17:24;8.10;99.90
51567;DHT22;37657;53.182;5.638;2023-02-15T16:19:51;8.10;99.90
51567;DHT22;37657;53.182;5.638;2023-02-15T16:22:25;8.00;99.90
51567;DHT22;37657;53.182;5.638;2023-02-15T16:27:48;7.90;99.90
51567;DHT22;37657;53.182;5.638;2023-02-15T16:30:33;7.90;99.90
51567;DHT22;37657;53.182;5.638;2023-02-15T16:33:10;7.90;99.90
51567;DHT22;37657;53.182;5.638;2023-02-15T16:35:38;7.80;99.90
51567;DHT22;37657;53.182;5.638;2023-02-15T16:38:04;7.80;99.90
51567;DHT22;37657;53.182;5.638;2023-02-15T16:40:45;7.70;99.90
51567;DHT22;37657;53.182;5.638;2023-02-15T16:43:20;7.70;99.90
51567;DHT22;37657;53.182;5.638;2023-02-15T16:45:47;7.70;99.90
51567;DHT22;37657;53.182;5.638;2023-02-15T16:48:18;7.70;99.90
51567;DHT22;37657;53.182;5.638;2023-02-15T16:50:48;7.70;99.90
51567;DHT22;37657;53.182;5.638;2023-02-15T16:53:20;7.60;99.90
51567;DHT22;37657;53.182;5.638;2023-02-15T16:56:10;7.60;99.90
51567;DHT22;37657;53.182;5.638;2023-02-15T16:58:42;7.60;99.90
51567;DHT22;37657;53.182;5.638;2023-02-15T17:01:11;7.60;99.90
51567;DHT22;37657;53.182;5.638;2023-02-15T17:03:37;7.60;99.90
51567;DHT22;37657;53.182;5.638;2023-02-15T17:06:24;7.60;99.90
51567;DHT22;37657;53.182;5.638;2023-02-15T17:08:52;7.50;99.90
51567;DHT22;37657;53.182;5.638;2023-02-15T17:11:32;7.50;99.90
51567;DHT22;37657;53.182;5.638;2023-02-15T17:19:16;7.40;99.90
51567;DHT22;37657;53.182;5.638;2023-02-15T17:21:49;7.30;99.90
51567;DHT22;37657;53.182;5.638;2023-02-15T17:27:07;7.30;99.90
51567;DHT22;37657;53.182;5.638;2023-02-15T17:29:38;7.30;99.90
51567;DHT22;37657;53.182;5.638;2023-02-15T17:32:12;7.30;99.90
51567;DHT22;37657;53.182;5.638;2023-02-15T17:35:08;7.30;99.90
51567;DHT22;37657;53.182;5.638;2023-02-15T17:40:21;7.30;99.90
51567;DHT22;37657;53.182;5.638;2023-02-15T17:42:47;7.20;99.90
51567;DHT22;37657;53.182;5.638;2023-02-15T17:45:13;7.20;99.90
51567;DHT22;37657;53.182;5.638;2023-02-15T17:47:39;7.30;99.90
51567;DHT22;37657;53.182;5.638;2023-02-15T17:50:06;7.20;99.90
51567;DHT22;37657;53.182;5.638;2023-02-15T17:52:32;7.10;99.90
51567;DHT22;37657;53.182;5.638;2023-02-15T17:54:58;7.20;99.90
51567;DHT22;37657;53.182;5.638;2023-02-15T17:57:44;7.20;99.90
51567;DHT22;37657;53.182;5.638;2023-02-15T18:00:13;7.20;99.90
51567;DHT22;37657;53.182;5.638;2023-02-15T18:02:57;7.30;99.90
51567;DHT22;37657;53.182;5.638;2023-02-15T18:05:41;7.20;99.90
51567;DHT22;37657;53.182;5.638;2023-02-15T18:08:27;7.20;99.90
51567;DHT22;37657;53.182;5.638;2023-02-15T18:11:12;7.20;99.90
51567;DHT22;37657;53.182;5.638;2023-02-15T18:13:57;7.30;99.90
51567;DHT22;37657;53.182;5.638;2023-02-15T18:16:27;7.20;99.90
51567;DHT22;37657;53.182;5.638;2023-02-15T18:18:54;7.30;99.90
51567;DHT22;37657;53.182;5.638;2023-02-15T18:21:20;7.30;99.90
51567;DHT22;37657;53.182;5.638;2023-02-15T18:23:45;7.20;99.90
51567;DHT22;37657;53.182;5.638;2023-02-15T18:26:22;7.30;99.90
51567;DHT22;37657;53.182;5.638;2023-02-15T18:28:48;7.30;99.90
51567;DHT22;37657;53.182;5.638;2023-02-15T18:31:14;7.30;99.90
51567;DHT22;37657;53.182;5.638;2023-02-15T18:33:49;7.30;99.90
51567;DHT22;37657;53.182;5.638;2023-02-15T18:36:31;7.30;99.90
51567;DHT22;37657;53.182;5.638;2023-02-15T18:39:01;7.30;99.90
51567;DHT22;37657;53.182;5.638;2023-02-15T18:41:28;7.30;99.90
51567;DHT22;37657;53.182;5.638;2023-02-15T18:43:54;7.30;99.90
51567;DHT22;37657;53.182;5.638;2023-02-15T18:46:20;7.40;99.90
51567;DHT22;37657;53.182;5.638;2023-02-15T18:48:46;7.30;99.90
51567;DHT22;37657;53.182;5.638;2023-02-15T18:51:22;7.30;99.90
51567;DHT22;37657;53.182;5.638;2023-02-15T18:53:50;7.40;99.90
51567;DHT22;37657;53.182;5.638;2023-02-15T18:56:20;7.50;99.90
51567;DHT22;37657;53.182;5.638;2023-02-15T18:58:46;7.50;99.90
51567;DHT22;37657;53.182;5.638;2023-02-15T19:01:18;7.40;99.90
51567;DHT22;37657;53.182;5.638;2023-02-15T19:03:49;7.50;99.90
51567;DHT22;37657;53.182;5.638;2023-02-15T19:06:18;7.70;99.90
51567;DHT22;37657;53.182;5.638;2023-02-15T19:08:46;7.50;99.90
51567;DHT22;37657;53.182;5.638;2023-02-15T19:11:18;7.50;99.90